GAP137 RPLL-RPVB
Flight info
| Callsign | GAP137 |
|---|---|
| Flight time | 0h 51m |
| Altitude | 33000 |
| Route | VERDE2R VERDE W24 TAPER B472 LAMBO LAMBO3P |
| Aircraft | A320/M-SDE3FGHIRWY/LB1 |
Departure
| Time | 2026-05-07 14:07 |
|---|---|
| Airport | Ninoy Aquino International Airport (RPLL) |
Arrival
| Time | 2026-05-07 14:58 |
|---|---|
| Airport | Bacolod-Silay International Airport (RPVB) |
| Time | Latitude | Longitude | Altitude | Speed | Heading |
|---|---|---|---|---|---|
| 2026-05-07 13:18 | 14.50924 | 121.01408 | 82 ft | 0 kts | 331° |
| 2026-05-07 13:52 | 14.50921 | 121.01409 | 82 ft | 0 kts | 326° |
| 2026-05-07 13:53 | 14.50917 | 121.01412 | 82 ft | 0 kts | 326° |
| 2026-05-07 13:53 | 14.50909 | 121.01414 | 82 ft | 1 kts | 0° |
| 2026-05-07 13:53 | 14.50897 | 121.01420 | 82 ft | 2 kts | 324° |
| 2026-05-07 13:53 | 14.50884 | 121.01427 | 82 ft | 2 kts | 332° |
| 2026-05-07 13:54 | 14.50874 | 121.01434 | 82 ft | 2 kts | 330° |
| 2026-05-07 13:54 | 14.50860 | 121.01441 | 82 ft | 2 kts | 331° |
| 2026-05-07 13:54 | 14.50847 | 121.01449 | 82 ft | 2 kts | 331° |
| 2026-05-07 13:54 | 14.50838 | 121.01453 | 82 ft | 0 kts | 332° |
| 2026-05-07 13:55 | 14.50832 | 121.01459 | 82 ft | 1 kts | 277° |
| 2026-05-07 13:55 | 14.50832 | 121.01466 | 82 ft | 0 kts | 237° |
| 2026-05-07 13:55 | 14.50836 | 121.01472 | 82 ft | 0 kts | 240° |
| 2026-05-07 13:55 | 14.50837 | 121.01472 | 82 ft | 0 kts | 240° |
| 2026-05-07 13:56 | 14.50836 | 121.01472 | 82 ft | 0 kts | 240° |
| 2026-05-07 13:59 | 14.50834 | 121.01466 | 82 ft | 3 kts | 240° |
| 2026-05-07 13:59 | 14.50814 | 121.01428 | 82 ft | 7 kts | 243° |
| 2026-05-07 14:00 | 14.50788 | 121.01379 | 82 ft | 8 kts | 241° |
| 2026-05-07 14:00 | 14.50762 | 121.01332 | 82 ft | 5 kts | 240° |
| 2026-05-07 14:00 | 14.50730 | 121.01311 | 82 ft | 7 kts | 183° |
| 2026-05-07 14:00 | 14.50712 | 121.01314 | 82 ft | 1 kts | 163° |
| 2026-05-07 14:01 | 14.50683 | 121.01318 | 82 ft | 6 kts | 189° |
| 2026-05-07 14:01 | 14.50642 | 121.01271 | 82 ft | 10 kts | 242° |
| 2026-05-07 14:01 | 14.50606 | 121.01204 | 82 ft | 11 kts | 241° |
| 2026-05-07 14:01 | 14.50564 | 121.01128 | 82 ft | 12 kts | 239° |
| 2026-05-07 14:02 | 14.50519 | 121.01047 | 82 ft | 13 kts | 240° |
| 2026-05-07 14:02 | 14.50471 | 121.00960 | 82 ft | 14 kts | 240° |
| 2026-05-07 14:02 | 14.50419 | 121.00869 | 82 ft | 15 kts | 240° |
| 2026-05-07 14:02 | 14.50367 | 121.00774 | 82 ft | 15 kts | 240° |
| 2026-05-07 14:03 | 14.50313 | 121.00675 | 82 ft | 13 kts | 240° |
| 2026-05-07 14:03 | 14.50264 | 121.00588 | 82 ft | 14 kts | 241° |
| 2026-05-07 14:03 | 14.50212 | 121.00495 | 82 ft | 15 kts | 240° |
| 2026-05-07 14:03 | 14.50159 | 121.00399 | 82 ft | 15 kts | 239° |
| 2026-05-07 14:04 | 14.50103 | 121.00299 | 82 ft | 16 kts | 239° |
| 2026-05-07 14:04 | 14.50054 | 121.00211 | 82 ft | 11 kts | 242° |
| 2026-05-07 14:04 | 14.50012 | 121.00134 | 82 ft | 12 kts | 240° |
| 2026-05-07 14:04 | 14.49965 | 121.00052 | 82 ft | 13 kts | 239° |
| 2026-05-07 14:05 | 14.49922 | 120.99979 | 82 ft | 5 kts | 235° |
| 2026-05-07 14:05 | 14.49888 | 120.99960 | 82 ft | 6 kts | 173° |
| 2026-05-07 14:05 | 14.49844 | 120.99983 | 82 ft | 7 kts | 149° |
| 2026-05-07 14:05 | 14.49803 | 121.00021 | 82 ft | 8 kts | 107° |
| 2026-05-07 14:06 | 14.49821 | 121.00079 | 82 ft | 9 kts | 61° |
| 2026-05-07 14:06 | 14.49869 | 121.00170 | 82 ft | 32 kts | 60° |
| 2026-05-07 14:06 | 14.50107 | 121.00594 | 82 ft | 101 kts | 60° |
| 2026-05-07 14:06 | 14.50556 | 121.01402 | 82 ft | 157 kts | 58° |
| 2026-05-07 14:07 | 14.51149 | 121.02454 | 494 ft | 169 kts | 62° |
| 2026-05-07 14:07 | 14.51723 | 121.03499 | 1120 ft | 170 kts | 61° |
| 2026-05-07 14:07 | 14.52301 | 121.04552 | 1820 ft | 167 kts | 61° |
| 2026-05-07 14:07 | 14.52875 | 121.05589 | 2288 ft | 172 kts | 61° |
| 2026-05-07 14:08 | 14.53492 | 121.06702 | 2576 ft | 185 kts | 60° |
| 2026-05-07 14:08 | 14.54155 | 121.07896 | 2836 ft | 200 kts | 60° |
| 2026-05-07 14:08 | 14.54885 | 121.09210 | 3058 ft | 221 kts | 61° |
| 2026-05-07 14:08 | 14.55682 | 121.10649 | 3382 ft | 238 kts | 61° |
| 2026-05-07 14:09 | 14.56308 | 121.12286 | 3696 ft | 256 kts | 83° |
| 2026-05-07 14:09 | 14.56094 | 121.14101 | 4267 ft | 264 kts | 109° |
| 2026-05-07 14:09 | 14.55073 | 121.15683 | 4991 ft | 271 kts | 131° |
| 2026-05-07 14:09 | 14.53729 | 121.17049 | 5670 ft | 275 kts | 132° |
| 2026-05-07 14:10 | 14.52365 | 121.18448 | 6347 ft | 278 kts | 132° |
| 2026-05-07 14:10 | 14.50981 | 121.19875 | 6792 ft | 279 kts | 132° |
| 2026-05-07 14:10 | 14.49610 | 121.21293 | 6982 ft | 278 kts | 133° |
| 2026-05-07 14:10 | 14.48011 | 121.22421 | 7156 ft | 292 kts | 159° |
| 2026-05-07 14:11 | 14.45951 | 121.22512 | 7834 ft | 301 kts | 189° |
| 2026-05-07 14:11 | 14.43933 | 121.21996 | 8701 ft | 299 kts | 191° |
| 2026-05-07 14:11 | 14.41908 | 121.21495 | 9400 ft | 301 kts | 190° |
| 2026-05-07 14:11 | 14.39841 | 121.21023 | 10097 ft | 304 kts | 189° |
| 2026-05-07 14:12 | 14.37741 | 121.20570 | 10608 ft | 313 kts | 188° |
| 2026-05-07 14:12 | 14.35566 | 121.20120 | 10911 ft | 328 kts | 188° |
| 2026-05-07 14:12 | 14.33294 | 121.19658 | 11411 ft | 335 kts | 188° |
| 2026-05-07 14:12 | 14.30985 | 121.19192 | 12038 ft | 337 kts | 189° |
| 2026-05-07 14:13 | 14.28663 | 121.18726 | 12653 ft | 339 kts | 189° |
| 2026-05-07 14:13 | 14.26328 | 121.18258 | 13247 ft | 341 kts | 189° |
| 2026-05-07 14:13 | 14.23983 | 121.17790 | 13783 ft | 344 kts | 189° |
| 2026-05-07 14:13 | 14.21625 | 121.17318 | 14285 ft | 347 kts | 189° |
| 2026-05-07 14:14 | 14.19213 | 121.16837 | 14778 ft | 351 kts | 189° |
| 2026-05-07 14:14 | 14.16787 | 121.16354 | 15255 ft | 354 kts | 189° |
| 2026-05-07 14:14 | 14.14345 | 121.15867 | 15720 ft | 357 kts | 189° |
| 2026-05-07 14:14 | 14.11935 | 121.15388 | 16160 ft | 360 kts | 189° |
| 2026-05-07 14:15 | 14.09453 | 121.14894 | 16602 ft | 363 kts | 189° |
| 2026-05-07 14:15 | 14.06979 | 121.14402 | 17018 ft | 366 kts | 189° |
| 2026-05-07 14:15 | 14.04447 | 121.13899 | 17434 ft | 369 kts | 189° |
| 2026-05-07 14:15 | 14.01917 | 121.13398 | 17853 ft | 372 kts | 189° |
| 2026-05-07 14:16 | 13.99351 | 121.12888 | 18277 ft | 374 kts | 189° |
| 2026-05-07 14:16 | 13.96768 | 121.12376 | 18700 ft | 376 kts | 189° |
| 2026-05-07 14:16 | 13.94190 | 121.11864 | 19114 ft | 378 kts | 189° |
| 2026-05-07 14:16 | 13.91583 | 121.11346 | 19518 ft | 380 kts | 189° |
| 2026-05-07 14:17 | 13.88967 | 121.10826 | 19915 ft | 382 kts | 189° |
| 2026-05-07 14:17 | 13.86340 | 121.10305 | 20307 ft | 384 kts | 189° |
| 2026-05-07 14:17 | 13.83668 | 121.09774 | 20699 ft | 387 kts | 189° |
| 2026-05-07 14:17 | 13.82427 | 121.09528 | 20891 ft | 388 kts | 190° |
| 2026-05-07 14:18 | 13.81113 | 121.09268 | 21071 ft | 389 kts | 189° |
| 2026-05-07 14:18 | 13.78427 | 121.08733 | 21440 ft | 391 kts | 189° |
| 2026-05-07 14:18 | 13.75740 | 121.08200 | 21810 ft | 393 kts | 189° |
| 2026-05-07 14:18 | 13.73041 | 121.07666 | 22159 ft | 394 kts | 189° |
| 2026-05-07 14:19 | 13.70332 | 121.07130 | 22482 ft | 397 kts | 189° |
| 2026-05-07 14:19 | 13.67567 | 121.06583 | 22840 ft | 399 kts | 189° |
| 2026-05-07 14:19 | 13.64839 | 121.06043 | 23196 ft | 401 kts | 190° |
| 2026-05-07 14:19 | 13.62090 | 121.05501 | 23553 ft | 403 kts | 190° |
| 2026-05-07 14:20 | 13.59299 | 121.04948 | 23903 ft | 405 kts | 190° |
| 2026-05-07 14:20 | 13.56548 | 121.04404 | 24242 ft | 407 kts | 190° |
| 2026-05-07 14:20 | 13.53749 | 121.03867 | 24575 ft | 409 kts | 187° |
| 2026-05-07 14:20 | 13.51643 | 121.03772 | 24773 ft | 410 kts | 174° |
| 2026-05-07 14:21 | 13.48858 | 121.04426 | 25091 ft | 410 kts | 157° |
| 2026-05-07 14:21 | 13.46369 | 121.05849 | 25419 ft | 411 kts | 145° |
| 2026-05-07 14:21 | 13.44012 | 121.07535 | 25743 ft | 413 kts | 144° |
| 2026-05-07 14:21 | 13.41650 | 121.09246 | 26041 ft | 415 kts | 144° |
| 2026-05-07 14:22 | 13.39288 | 121.10937 | 26342 ft | 418 kts | 144° |
| 2026-05-07 14:22 | 13.36872 | 121.12646 | 26646 ft | 420 kts | 145° |
| 2026-05-07 14:22 | 13.34445 | 121.14350 | 26940 ft | 422 kts | 145° |
| 2026-05-07 14:22 | 13.32020 | 121.16046 | 27229 ft | 424 kts | 145° |
| 2026-05-07 14:23 | 13.29573 | 121.17758 | 27516 ft | 426 kts | 145° |
| 2026-05-07 14:23 | 13.27101 | 121.19489 | 27793 ft | 429 kts | 145° |
| 2026-05-07 14:23 | 13.24626 | 121.21225 | 28067 ft | 431 kts | 145° |
| 2026-05-07 14:23 | 13.22142 | 121.22967 | 28341 ft | 433 kts | 145° |
| 2026-05-07 14:24 | 13.19661 | 121.24706 | 28600 ft | 435 kts | 146° |
| 2026-05-07 14:24 | 13.17158 | 121.26460 | 28860 ft | 437 kts | 146° |
| 2026-05-07 14:24 | 13.14617 | 121.28242 | 29142 ft | 438 kts | 146° |
| 2026-05-07 14:24 | 13.12112 | 121.29996 | 29429 ft | 439 kts | 146° |
| 2026-05-07 14:25 | 13.09596 | 121.31758 | 29715 ft | 440 kts | 146° |
| 2026-05-07 14:25 | 13.07897 | 121.32948 | 29903 ft | 440 kts | 146° |
| 2026-05-07 14:25 | 13.04523 | 121.35310 | 30258 ft | 441 kts | 146° |
| 2026-05-07 14:25 | 13.01969 | 121.37097 | 30510 ft | 442 kts | 147° |
| 2026-05-07 14:26 | 12.99424 | 121.38878 | 30755 ft | 443 kts | 147° |
| 2026-05-07 14:26 | 12.96864 | 121.40668 | 30988 ft | 444 kts | 147° |
| 2026-05-07 14:26 | 12.94311 | 121.42453 | 31210 ft | 445 kts | 147° |
| 2026-05-07 14:26 | 12.91764 | 121.44235 | 31427 ft | 446 kts | 147° |
| 2026-05-07 14:27 | 12.89185 | 121.46037 | 31648 ft | 447 kts | 147° |
| 2026-05-07 14:27 | 12.86600 | 121.47844 | 31863 ft | 448 kts | 147° |
| 2026-05-07 14:27 | 12.84002 | 121.49658 | 32078 ft | 449 kts | 147° |
| 2026-05-07 14:27 | 12.81411 | 121.51467 | 32286 ft | 450 kts | 147° |
| 2026-05-07 14:28 | 12.78842 | 121.53262 | 32493 ft | 450 kts | 147° |
| 2026-05-07 14:28 | 12.76217 | 121.55094 | 32720 ft | 451 kts | 148° |
| 2026-05-07 14:28 | 12.73620 | 121.56907 | 32861 ft | 453 kts | 147° |
| 2026-05-07 14:29 | 12.68429 | 121.60528 | 32865 ft | 453 kts | 147° |
| 2026-05-07 14:29 | 12.63291 | 121.64113 | 32864 ft | 453 kts | 148° |
| 2026-05-07 14:30 | 12.58045 | 121.67772 | 32862 ft | 453 kts | 148° |
| 2026-05-07 14:30 | 12.52853 | 121.71390 | 32860 ft | 454 kts | 148° |
| 2026-05-07 14:31 | 12.47616 | 121.75042 | 32857 ft | 454 kts | 147° |
| 2026-05-07 14:31 | 12.42329 | 121.78725 | 32854 ft | 463 kts | 147° |
| 2026-05-07 14:32 | 12.36805 | 121.82250 | 32868 ft | 469 kts | 153° |
| 2026-05-07 14:32 | 12.33961 | 121.83762 | 33527 ft | 457 kts | 156° |
| 2026-05-07 14:32 | 12.31104 | 121.85109 | 34363 ft | 444 kts | 158° |
| 2026-05-07 14:32 | 12.28298 | 121.86343 | 34789 ft | 441 kts | 159° |
| 2026-05-07 14:33 | 12.25445 | 121.87588 | 34839 ft | 445 kts | 159° |
| 2026-05-07 14:33 | 12.19684 | 121.90095 | 34841 ft | 453 kts | 159° |
| 2026-05-07 14:34 | 12.13862 | 121.92632 | 34830 ft | 453 kts | 159° |
| 2026-05-07 14:34 | 12.10975 | 121.93890 | 34442 ft | 453 kts | 158° |
| 2026-05-07 14:34 | 12.08073 | 121.95155 | 33466 ft | 457 kts | 158° |
| 2026-05-07 14:34 | 12.05121 | 121.96439 | 32238 ft | 465 kts | 158° |
| 2026-05-07 14:35 | 12.02126 | 121.97743 | 31443 ft | 463 kts | 158° |
| 2026-05-07 14:35 | 11.99181 | 121.99027 | 30936 ft | 457 kts | 158° |
| 2026-05-07 14:35 | 11.96278 | 122.00294 | 30424 ft | 451 kts | 158° |
| 2026-05-07 14:35 | 11.93411 | 122.01545 | 29909 ft | 446 kts | 158° |
| 2026-05-07 14:36 | 11.90585 | 122.02776 | 29392 ft | 441 kts | 158° |
| 2026-05-07 14:36 | 11.87747 | 122.04012 | 28857 ft | 437 kts | 158° |
| 2026-05-07 14:36 | 11.84936 | 122.05235 | 28327 ft | 433 kts | 158° |
| 2026-05-07 14:36 | 11.82197 | 122.06426 | 27824 ft | 428 kts | 157° |
| 2026-05-07 14:37 | 11.79482 | 122.07607 | 27346 ft | 423 kts | 157° |
| 2026-05-07 14:37 | 11.74111 | 122.09942 | 26409 ft | 414 kts | 157° |
| 2026-05-07 14:37 | 11.71482 | 122.11084 | 25975 ft | 408 kts | 156° |
| 2026-05-07 14:38 | 11.68861 | 122.12224 | 25536 ft | 403 kts | 156° |
| 2026-05-07 14:38 | 11.66312 | 122.13332 | 25101 ft | 399 kts | 156° |
| 2026-05-07 14:38 | 11.63747 | 122.14447 | 24659 ft | 394 kts | 156° |
| 2026-05-07 14:38 | 11.61241 | 122.15536 | 24224 ft | 390 kts | 156° |
| 2026-05-07 14:39 | 11.58763 | 122.16612 | 23795 ft | 386 kts | 155° |
| 2026-05-07 14:39 | 11.56278 | 122.17691 | 23370 ft | 382 kts | 155° |
| 2026-05-07 14:39 | 11.53865 | 122.18740 | 22949 ft | 379 kts | 155° |
| 2026-05-07 14:39 | 11.51428 | 122.19797 | 22523 ft | 376 kts | 155° |
| 2026-05-07 14:40 | 11.49024 | 122.20841 | 22105 ft | 373 kts | 154° |
| 2026-05-07 14:40 | 11.46651 | 122.21872 | 21689 ft | 370 kts | 154° |
| 2026-05-07 14:40 | 11.44296 | 122.22895 | 21269 ft | 368 kts | 154° |
| 2026-05-07 14:40 | 11.41927 | 122.23923 | 20846 ft | 365 kts | 154° |
| 2026-05-07 14:41 | 11.39584 | 122.24940 | 20423 ft | 363 kts | 154° |
| 2026-05-07 14:41 | 11.37269 | 122.25944 | 20004 ft | 361 kts | 154° |
| 2026-05-07 14:41 | 11.34955 | 122.26949 | 19575 ft | 359 kts | 154° |
| 2026-05-07 14:41 | 11.32667 | 122.27942 | 19154 ft | 358 kts | 154° |
| 2026-05-07 14:42 | 11.30387 | 122.28931 | 18726 ft | 356 kts | 153° |
| 2026-05-07 14:42 | 11.28111 | 122.29919 | 18290 ft | 355 kts | 153° |
| 2026-05-07 14:42 | 11.25841 | 122.30904 | 17856 ft | 353 kts | 153° |
| 2026-05-07 14:42 | 11.23553 | 122.31897 | 17423 ft | 352 kts | 153° |
| 2026-05-07 14:43 | 11.21303 | 122.32873 | 17064 ft | 348 kts | 153° |
| 2026-05-07 14:43 | 11.19109 | 122.33822 | 16859 ft | 338 kts | 153° |
| 2026-05-07 14:43 | 11.16986 | 122.34763 | 16732 ft | 325 kts | 151° |
| 2026-05-07 14:43 | 11.15013 | 122.35799 | 16515 ft | 317 kts | 146° |
| 2026-05-07 14:44 | 11.13101 | 122.36950 | 16124 ft | 316 kts | 145° |
| 2026-05-07 14:44 | 11.11235 | 122.38096 | 15736 ft | 315 kts | 145° |
| 2026-05-07 14:44 | 11.09337 | 122.39262 | 15342 ft | 315 kts | 145° |
| 2026-05-07 14:44 | 11.07475 | 122.40404 | 14960 ft | 314 kts | 145° |
| 2026-05-07 14:45 | 11.05610 | 122.41546 | 14577 ft | 313 kts | 145° |
| 2026-05-07 14:45 | 11.03742 | 122.42690 | 14193 ft | 312 kts | 145° |
| 2026-05-07 14:45 | 11.01883 | 122.43827 | 13809 ft | 310 kts | 145° |
| 2026-05-07 14:45 | 11.00029 | 122.44960 | 13428 ft | 309 kts | 145° |
| 2026-05-07 14:46 | 10.98185 | 122.46088 | 13041 ft | 307 kts | 146° |
| 2026-05-07 14:46 | 10.96355 | 122.47205 | 12663 ft | 305 kts | 145° |
| 2026-05-07 14:46 | 10.94544 | 122.48311 | 12309 ft | 302 kts | 145° |
| 2026-05-07 14:46 | 10.92743 | 122.49410 | 11955 ft | 299 kts | 145° |
| 2026-05-07 14:47 | 10.90977 | 122.50487 | 11621 ft | 296 kts | 145° |
| 2026-05-07 14:47 | 10.89221 | 122.51564 | 11282 ft | 292 kts | 143° |
| 2026-05-07 14:47 | 10.87638 | 122.52818 | 10937 ft | 285 kts | 132° |
| 2026-05-07 14:47 | 10.86333 | 122.54318 | 10589 ft | 281 kts | 125° |
| 2026-05-07 14:48 | 10.85155 | 122.55878 | 10252 ft | 277 kts | 123° |
| 2026-05-07 14:48 | 10.83990 | 122.57452 | 10009 ft | 278 kts | 123° |
| 2026-05-07 14:48 | 10.82808 | 122.59049 | 9983 ft | 280 kts | 123° |
| 2026-05-07 14:48 | 10.81648 | 122.60610 | 9863 ft | 277 kts | 124° |
| 2026-05-07 14:49 | 10.80476 | 122.62183 | 9445 ft | 279 kts | 124° |
| 2026-05-07 14:49 | 10.79302 | 122.63753 | 8970 ft | 281 kts | 124° |
| 2026-05-07 14:49 | 10.78098 | 122.65363 | 8420 ft | 285 kts | 124° |
| 2026-05-07 14:49 | 10.76906 | 122.66958 | 7883 ft | 289 kts | 124° |
| 2026-05-07 14:50 | 10.75675 | 122.68603 | 7333 ft | 292 kts | 124° |
| 2026-05-07 14:50 | 10.74452 | 122.70237 | 6909 ft | 289 kts | 124° |
| 2026-05-07 14:50 | 10.73240 | 122.71855 | 6595 ft | 283 kts | 124° |
| 2026-05-07 14:50 | 10.72062 | 122.73426 | 6307 ft | 277 kts | 123° |
| 2026-05-07 14:51 | 10.70905 | 122.74970 | 6042 ft | 270 kts | 123° |
| 2026-05-07 14:51 | 10.69770 | 122.76487 | 5680 ft | 268 kts | 123° |
| 2026-05-07 14:51 | 10.68651 | 122.77983 | 5316 ft | 266 kts | 123° |
| 2026-05-07 14:51 | 10.67537 | 122.79470 | 5025 ft | 261 kts | 123° |
| 2026-05-07 14:52 | 10.66448 | 122.80937 | 4983 ft | 259 kts | 121° |
| 2026-05-07 14:52 | 10.65473 | 122.82456 | 4805 ft | 254 kts | 117° |
| 2026-05-07 14:52 | 10.64576 | 122.84021 | 4390 ft | 255 kts | 116° |
| 2026-05-07 14:52 | 10.63701 | 122.85562 | 4022 ft | 255 kts | 116° |
| 2026-05-07 14:53 | 10.62812 | 122.87127 | 3724 ft | 251 kts | 116° |
| 2026-05-07 14:53 | 10.61958 | 122.88628 | 3538 ft | 243 kts | 116° |
| 2026-05-07 14:53 | 10.61139 | 122.90089 | 3415 ft | 231 kts | 111° |
| 2026-05-07 14:53 | 10.60865 | 122.91609 | 3271 ft | 215 kts | 76° |
| 2026-05-07 14:54 | 10.61629 | 122.92836 | 3152 ft | 208 kts | 37° |
| 2026-05-07 14:54 | 10.62927 | 122.93452 | 3039 ft | 201 kts | 28° |
| 2026-05-07 14:54 | 10.64169 | 122.94074 | 2887 ft | 192 kts | 33° |
| 2026-05-07 14:54 | 10.65281 | 122.94700 | 2794 ft | 179 kts | 33° |
| 2026-05-07 14:55 | 10.66371 | 122.95333 | 2447 ft | 179 kts | 33° |
| 2026-05-07 14:55 | 10.67406 | 122.95933 | 2186 ft | 164 kts | 34° |
| 2026-05-07 14:55 | 10.68371 | 122.96494 | 1948 ft | 151 kts | 33° |
| 2026-05-07 14:55 | 10.69230 | 122.96993 | 1786 ft | 133 kts | 34° |
| 2026-05-07 14:56 | 10.70052 | 122.97437 | 1544 ft | 130 kts | 32° |
| 2026-05-07 14:56 | 10.70836 | 122.97880 | 1312 ft | 128 kts | 34° |
| 2026-05-07 14:56 | 10.71596 | 122.98340 | 1131 ft | 128 kts | 33° |
| 2026-05-07 14:56 | 10.72377 | 122.98801 | 966 ft | 128 kts | 32° |
| 2026-05-07 14:57 | 10.73156 | 122.99238 | 844 ft | 127 kts | 32° |
| 2026-05-07 14:57 | 10.73912 | 122.99713 | 690 ft | 127 kts | 34° |
| 2026-05-07 14:57 | 10.74687 | 123.00160 | 557 ft | 128 kts | 32° |
| 2026-05-07 14:57 | 10.75456 | 123.00612 | 349 ft | 127 kts | 31° |
| 2026-05-07 14:58 | 10.76218 | 123.01062 | 204 ft | 126 kts | 32° |
| 2026-05-07 14:58 | 10.76982 | 123.01514 | 59 ft | 124 kts | 32° |
| 2026-05-07 14:58 | 10.77667 | 123.01918 | 37 ft | 96 kts | 28° |
| 2026-05-07 14:58 | 10.78099 | 123.02170 | 38 ft | 47 kts | 31° |
| 2026-05-07 14:59 | 10.78275 | 123.02274 | 38 ft | 12 kts | 29° |
| 2026-05-07 14:59 | 10.78337 | 123.02311 | 38 ft | 8 kts | 38° |
| 2026-05-07 14:59 | 10.78346 | 123.02304 | 38 ft | 5 kts | 187° |
| 2026-05-07 14:59 | 10.78302 | 123.02289 | 38 ft | 7 kts | 212° |
| 2026-05-07 15:00 | 10.78245 | 123.02252 | 38 ft | 12 kts | 211° |
| 2026-05-07 15:00 | 10.78156 | 123.02200 | 38 ft | 16 kts | 210° |
| 2026-05-07 15:00 | 10.78057 | 123.02142 | 38 ft | 16 kts | 210° |
| 2026-05-07 15:00 | 10.77953 | 123.02081 | 38 ft | 17 kts | 210° |
| 2026-05-07 15:01 | 10.77845 | 123.02020 | 37 ft | 17 kts | 209° |
| 2026-05-07 15:01 | 10.77737 | 123.01956 | 37 ft | 15 kts | 210° |
| 2026-05-07 15:01 | 10.77681 | 123.01910 | 37 ft | 9 kts | 245° |
| 2026-05-07 15:01 | 10.77697 | 123.01845 | 37 ft | 10 kts | 300° |
| 2026-05-07 15:02 | 10.77736 | 123.01778 | 37 ft | 11 kts | 300° |
| 2026-05-07 15:02 | 10.77747 | 123.01714 | 37 ft | 9 kts | 252° |
| 2026-05-07 15:02 | 10.77694 | 123.01671 | 36 ft | 10 kts | 209° |
| 2026-05-07 15:02 | 10.77653 | 123.01647 | 36 ft | 2 kts | 209° |
| 2026-05-07 15:03 | 10.77634 | 123.01636 | 36 ft | 3 kts | 209° |
| 2026-05-07 15:03 | 10.77606 | 123.01621 | 36 ft | 3 kts | 210° |
| 2026-05-07 15:03 | 10.77604 | 123.01620 | 36 ft | 0 kts | 210° |
| 2026-05-07 15:03 | 10.77598 | 123.01614 | 36 ft | 2 kts | 230° |
| 2026-05-07 15:04 | 10.77598 | 123.01596 | 36 ft | 3 kts | 301° |
| 2026-05-07 15:04 | 10.77619 | 123.01576 | 36 ft | 4 kts | 310° |
| 2026-05-07 15:04 | 10.77632 | 123.01556 | 36 ft | 2 kts | 302° |
| 2026-05-07 15:04 | 10.77633 | 123.01554 | 36 ft | 0 kts | 302° |